This is the latest recevied weather packets stored in our database for station/object W6ORV. If no packets are shown the sender has not sent any weather packets the latest 10 day(s).
| Time | Temp. | Humidity | Pressure | Rain* | Wind** | Luminosity | Snow |
|---|---|---|---|---|---|---|---|
| 1778179759 | 28.33° C | 46% | 4301.9 hPa | 0 mm | - | 793 W/m² | - |
| 1778179457 | 28.89° C | 41% | 4301.8 hPa | 0 mm | - | 838 W/m² | - |
| 1778179154 | 28.89° C | 44% | 4302 hPa | 0 mm | - | 830 W/m² | - |
| 1778178851 | 26.67° C | 47% | 4302.1 hPa | 0 mm | - | 834 W/m² | - |
| 1778178548 | 28.33° C | 45% | 4302 hPa | 0 mm | - | 841 W/m² | - |
| 1778178243 | 27.22° C | 45% | 4302.1 hPa | 0 mm | - | 854 W/m² | - |
| 1778177940 | 26.67° C | 47% | 4301.8 hPa | 0 mm | - | 853 W/m² | - |
| 1778177636 | 26.67° C | 49% | 4302.2 hPa | 0 mm | - | 851 W/m² | - |
| 1778177333 | 27.22° C | 48% | 4302 hPa | 0 mm | - | 851 W/m² | - |
| 1778177030 | 27.22° C | 46% | 4302.1 hPa | 0 mm | - | 837 W/m² | - |
| 1778176726 | 27.78° C | 47% | 4302.2 hPa | 0 mm | - | 791 W/m² | - |
| 1778176423 | 27.78° C | 47% | 4302.1 hPa | 0 mm | - | 812 W/m² | - |
| 1778176120 | 26.67° C | 48% | 4302 hPa | 0 mm | - | 856 W/m² | - |
| 1778175818 | 25° C | 50% | 4301.9 hPa | 0 mm | - | 857 W/m² | - |
| 1778175515 | 25.56° C | 51% | 4302.1 hPa | 0 mm | - | 843 W/m² | - |
| 1778175212 | 26.11° C | 49% | 4302 hPa | 0 mm | - | 838 W/m² | - |
| 1778174908 | 25° C | 53% | 4302.1 hPa | 0 mm | - | 837 W/m² | - |
| 1778174605 | 25° C | 53% | 4302.1 hPa | 0 mm | - | 817 W/m² | - |
| 1778174301 | 25.56° C | 52% | 4302.5 hPa | 0 mm | - | 823 W/m² | - |
| 1778173998 | 25° C | 54% | 4302.5 hPa | 0 mm | - | 793 W/m² | - |
| 1778173695 | 25° C | 52% | 4302.2 hPa | 0 mm | - | 796 W/m² | - |
| 1778173392 | 25° C | 54% | 4302.3 hPa | 0 mm | - | 750 W/m² | - |
| 1778173087 | 25.56° C | 52% | 4302.4 hPa | 0 mm | - | 743 W/m² | - |
| 1778172784 | 24.44° C | 54% | 4302.3 hPa | 0 mm | - | 689 W/m² | - |
| 1778172480 | 23.33° C | 56% | 4302.7 hPa | 0 mm | - | 721 W/m² | - |
* Rain latest hour (hover to see other rain measurements)
** Current wind speed in m/s (hover to see current wind gust speed)